• Join FlightAware (Why Join?)
  • Login
  • US Flag 
07:16AM EDT


 

Airport Tracker/Info


-or-


 

Live Flight TrackerFlight Track Log ✈ AAL979 ✈ 23-Apr-2013 ✈ KMIA - SVMI / CCS

Flight Track Log - Related Links

Times and Time Zones

All times are in EDT time to prevent confusion due to time zone crossing. See the AAL979 flight status page for this flight to view local times or setup timezone preferences in your user account.

Time Position Orientation Groundspeed Altitude Reporting Facility
EDT Latitude Longitude Course Direction KTS MPH feet Rate Location/Type
12:31PM 25.7983 -80.2722 104° East 168 193 900  Level Miami Center
12:32PM 25.7664 -80.2019 117° Southeast 240 276 3,500 2,460 Climbing Miami Center
12:33PM 25.6123 -80.1070 114° Southeast  Level Estimated
12:33PM 25.7392 -80.1183 110° East 269 310 6,900  Level Miami Center
12:34PM 25.5207 -80.0157 104° East  Level Estimated
12:34PM 25.7242 -80.0325 101° East 275 316 10,300  Level Miami Center
12:35PM 25.4290 -79.9246 105° East  Level Estimated
12:35PM 25.7033 -79.9328 103° East 304 350 12,100  Level Miami Center
12:36PM 25.3373 -79.8335 104° East  Level Estimated
12:36PM 25.6764 -79.8214 105° East 341 392 14,700  Level Miami Center
12:37PM 25.6536 -79.7081 103° East 363 418 17,200 2,400 Climbing Miami Center
12:38PM 25.6289 -79.5831 102° East 386 444 19,500 2,280 Climbing Miami Center
12:39PM 25.5975 -79.4556 105° East 411 473 21,800 2,280 Climbing Miami Center
12:40PM 25.5664 -79.3236 105° East 424 488 24,100 2,100 Climbing Miami Center
12:41PM 25.5036 -79.2072 121° Southeast 436 502 26,000 1,740 Climbing Miami Center
12:42PM 25.4197 -79.0975 130° Southeast 448 516 27,600 1,680 Climbing Miami Center
12:43PM 25.3272 -78.9856 132° Southeast 465 535 29,400 1,620 Climbing Miami Center
12:44PM 25.2286 -78.8667 133° Southeast 477 549 30,900 1,560 Climbing Miami Center
12:45PM 25.1403 -78.7503 130° Southeast 482 555 32,600 1,380 Climbing Miami Center
12:46PM 25.0478 -78.6342 131° Southeast 494 568 33,700 1,080 Climbing Miami Center
12:47PM 24.9531 -78.5114 130° Southeast 506 582 34,800 1,200 Climbing Miami Center
12:48PM 24.8561 -78.3911 132° Southeast 512 589 36,200 1,260 Climbing Miami Center
12:49PM 24.7592 -78.2708 132° Southeast 524 603 37,400 1,020 Climbing Miami Center
12:50PM 24.6597 -78.1508 132° Southeast 524 603 38,300 780 Climbing Miami Center
12:51PM 24.5647 -78.0286 131° Southeast 524 603 39,000 300 Climbing Miami Center
12:52PM 24.4653 -77.9067 132° Southeast 524 603 39,000  Level Miami Center
12:53PM 24.3700 -77.7875 131° Southeast 524 603 39,000  Level Miami Center
12:54PM 24.2725 -77.6681 132° Southeast 519 597 39,000  Level Miami Center
12:55PM 24.1789 -77.5492 131° Southeast 519 597 39,000  Level Miami Center
12:56PM 24.0833 -77.4347 132° Southeast 519 597 39,000  Level Miami Center
12:57PM 23.9917 -77.3161 130° Southeast 514 592 39,000  Level Miami Center
12:58PM 23.8939 -77.2044 134° Southeast 514 592 39,000  Level Miami Center
12:59PM 23.8167 -77.1019 129° Southeast 509 586 39,000  Level Miami Center
01:00PM 23.7208 -76.9883 133° Southeast 509 586 39,000  Level Miami Center
01:01PM 23.6247 -76.8725 132° Southeast 509 586 39,000  Level Miami Center
01:02PM 23.5306 -76.7547 131° Southeast 514 592 39,000  Level Miami Center
01:03PM 23.4322 -76.6369 132° Southeast 520 598 39,000  Level Miami Center
01:04PM 23.3358 -76.5194 132° Southeast 520 598 39,000  Level Miami Center
01:05PM 23.2267 -76.3908 133° Southeast 520 598 39,000  Level Miami Center
01:06PM 23.1325 -76.2761 132° Southeast 520 598 39,000  Level Miami Center
01:07PM 23.0358 -76.1592 132° Southeast 520 598 39,000  Level Miami Center
01:08PM 22.9392 -76.0447 133° Southeast 520 598 39,000  Level Miami Center
01:09PM 22.8422 -75.9281 132° Southeast 520 598 39,000  Level Miami Center
01:10PM 22.7475 -75.8139 132° Southeast 515 593 39,000  Level Miami Center
01:11PM 22.6506 -75.6997 133° Southeast 515 593 39,000  Level Miami Center
01:12PM 22.5536 -75.5858 133° Southeast 515 593 39,000  Level Miami Center
01:13PM 22.4586 -75.4744 133° Southeast 515 593 39,000  Level Miami Center
01:14PM 22.3633 -75.3611 132° Southeast 515 593 39,000  Level Miami Center
01:15PM 22.2683 -75.2475 132° Southeast 515 593 39,000  Level Miami Center
01:16PM 22.1731 -75.1344 132° Southeast 515 593 39,000  Level Miami Center
01:17PM 22.0714 -75.0258 135° Southeast 510 587 39,000  Level Miami Center
01:18PM 21.9681 -74.9311 140° Southeast 505 581 39,000  Level Miami Center
01:19PM 21.8603 -74.8297 139° Southeast 505 581 39,000  Level Miami Center
01:20PM 21.7564 -74.7308 139° Southeast 505 581 39,000  Level Miami Center
01:21PM 21.6569 -74.6297 137° Southeast 495 570 39,000 -60 Level Miami Center
01:22PM 21.5508 -74.5286 138° Southeast 495 570 38,900  Descending Miami Center
01:23PM 21.4472 -74.4303 139° Southeast 495 570 39,000  Climbing Miami Center
01:24PM 21.3411 -74.3342 140° Southeast 495 570 39,000  Level Miami Center
01:25PM 21.2394 -74.2381 139° Southeast 489 563 39,000  Level Miami Center
01:26PM 21.1353 -74.1397 139° Southeast 494 568 39,000  Level Miami Center
01:27PM 21.0314 -74.0419 139° Southeast 493 567 39,000  Level Miami Center
01:28PM 20.9294 -73.9442 138° Southeast 493 567 39,000  Level Miami Center
01:29PM 20.8253 -73.8486 139° Southeast 493 567 39,000  Level Miami Center
01:30PM 20.7211 -73.7556 140° Southeast 493 567 39,000 -60 Level Miami Center
01:31PM 20.6169 -73.6581 139° Southeast 493 567 38,900  Descending Miami Center
01:32PM 20.5169 -73.5631 138° Southeast 488 562 39,000  Climbing Miami Center
01:33PM 20.4147 -73.4681 139° Southeast 488 562 39,000  Level Miami Center
01:34PM 20.3125 -73.3711 138° Southeast 488 562 39,000  Level Miami Center
01:35PM 20.2058 -73.2744 140° Southeast 493 567 39,000 -60 Level Miami Center
01:36PM 20.0956 -73.1911 145° Southeast 493 567 38,900 -120 Descending Miami Center
01:38PM 19.9588 -73.0885 146° Southeast  Level FlightAware Approximate
01:45PM 19.2318 -72.5652 146° Southeast  Level FlightAware Approximate
01:46PM 19.1278 -72.4909 146° Southeast  Level FlightAware Approximate
01:47PM 19.0238 -72.4166 146° Southeast  Level FlightAware Approximate
01:48PM 18.9198 -72.3424 146° Southeast  Level FlightAware Approximate
01:49PM 18.8157 -72.2683 146° Southeast  Level FlightAware Approximate
01:50PM 18.7116 -72.1943 146° Southeast  Level FlightAware Approximate
01:51PM 18.6075 -72.1204 146° Southeast  Level FlightAware Approximate
01:52PM 18.5033 -72.0466 146° Southeast  Level FlightAware Approximate
01:53PM 18.3991 -71.9728 146° Southeast  Level FlightAware Approximate
01:54PM 18.2949 -71.8992 146° Southeast  Level FlightAware Approximate
01:55PM 18.1907 -71.8256 146° Southeast  Level FlightAware Approximate
01:56PM 18.0864 -71.7522 146° Southeast  Level FlightAware Approximate
01:57PM 17.9818 -71.6792 146° Southeast  Level FlightAware Approximate
01:58PM 17.8772 -71.6064 146° Southeast  Level FlightAware Approximate
01:59PM 17.7726 -71.5337 146° Southeast  Level FlightAware Approximate
02:00PM 17.6679 -71.4610 147° Southeast  Level FlightAware Approximate
02:01PM 17.5632 -71.3884 147° Southeast  Level FlightAware Approximate
02:02PM 17.4585 -71.3159 147° Southeast  Level FlightAware Approximate
02:03PM 17.3537 -71.2436 147° Southeast  Level FlightAware Approximate
02:04PM 17.2489 -71.1712 147° Southeast  Level FlightAware Approximate
02:05PM 17.1441 -71.0990 147° Southeast  Level FlightAware Approximate
02:06PM 17.0393 -71.0268 147° Southeast  Level FlightAware Approximate
02:07PM 16.9344 -70.9548 147° Southeast  Level FlightAware Approximate
02:08PM 16.8295 -70.8828 147° Southeast  Level FlightAware Approximate
02:09PM 16.7246 -70.8108 147° Southeast  Level FlightAware Approximate
02:10PM 16.6197 -70.7390 147° Southeast  Level FlightAware Approximate
02:11PM 16.5147 -70.6672 147° Southeast  Level FlightAware Approximate
02:12PM 16.4098 -70.5956 147° Southeast  Level FlightAware Approximate
02:13PM 16.3048 -70.5239 147° Southeast  Level FlightAware Approximate
02:14PM 16.1997 -70.4524 147° Southeast  Level FlightAware Approximate
02:15PM 16.0947 -70.3810 147° Southeast  Level FlightAware Approximate
02:16PM 15.9896 -70.3096 147° Southeast  Level FlightAware Approximate
02:17PM 15.8847 -70.2381 147° Southeast  Level FlightAware Approximate
02:18PM 15.7797 -70.1666 147° Southeast  Level FlightAware Approximate
02:19PM 15.6747 -70.0952 147° Southeast  Level FlightAware Approximate
02:20PM 15.5697 -70.0239 147° Southeast  Level FlightAware Approximate
02:21PM 15.4647 -69.9527 147° Southeast  Level FlightAware Approximate
02:22PM 15.3596 -69.8815 147° Southeast  Level FlightAware Approximate
02:23PM 15.2545 -69.8104 147° Southeast  Level FlightAware Approximate
02:24PM 15.1494 -69.7393 147° Southeast  Level FlightAware Approximate
02:25PM 15.0443 -69.6684 147° Southeast  Level FlightAware Approximate
02:26PM 14.9391 -69.5975 147° Southeast  Level FlightAware Approximate
02:27PM 14.8339 -69.5267 147° Southeast  Level FlightAware Approximate
02:28PM 14.7287 -69.4559 147° Southeast  Level FlightAware Approximate
02:29PM 14.6235 -69.3852 147° Southeast  Level FlightAware Approximate
02:30PM 14.5183 -69.3146 147° Southeast  Level FlightAware Approximate
02:31PM 14.4130 -69.2441 147° Southeast  Level FlightAware Approximate
02:32PM 14.3077 -69.1736 147° Southeast  Level FlightAware Approximate
02:33PM 14.2024 -69.1032 147° Southeast  Level FlightAware Approximate
02:34PM 14.0971 -69.0329 147° Southeast  Level FlightAware Approximate
02:35PM 13.9917 -68.9626 147° Southeast  Level FlightAware Approximate
02:36PM 13.8864 -68.8923 147° Southeast  Level FlightAware Approximate
02:37PM 13.7810 -68.8222 147° Southeast  Level FlightAware Approximate
02:38PM 13.6756 -68.7521 147° Southeast  Level FlightAware Approximate
02:39PM 13.5702 -68.6821 147° Southeast  Level FlightAware Approximate
02:40PM 13.4647 -68.6121 147° Southeast  Level FlightAware Approximate
02:41PM 13.3593 -68.5422 147° Southeast  Level FlightAware Approximate
02:42PM 13.2538 -68.4724 147° Southeast  Level FlightAware Approximate
02:43PM 13.1483 -68.4026 147° Southeast  Level FlightAware Approximate
02:44PM 13.0428 -68.3329 147° Southeast  Level FlightAware Approximate
02:45PM 12.9372 -68.2632 147° Southeast  Level FlightAware Approximate
02:46PM 12.8318 -68.1934 147° Southeast  Level FlightAware Approximate
02:47PM 12.7266 -68.1232 147° Southeast  Level FlightAware Approximate
02:48PM 12.6214 -68.0531 147° Southeast  Level FlightAware Approximate
02:49PM 12.5173 -67.9814 145° Southeast  Level FlightAware Approximate
02:50PM 12.4144 -67.9078 145° Southeast  Level FlightAware Approximate
02:51PM 12.3093 -67.8380 154° Southeast  Level FlightAware Approximate
02:52PM 12.1986 -67.7824 146° Southeast  Level FlightAware Approximate
02:53PM 12.0947 -67.7104 146° Southeast  Level FlightAware Approximate
02:54PM 11.9908 -67.6385 146° Southeast  Level FlightAware Approximate
02:55PM 11.8858 -67.5683 147° Southeast  Level FlightAware Approximate
02:56PM 11.7807 -67.4982 147° Southeast  Level FlightAware Approximate
02:57PM 11.6753 -67.4287 147° Southeast  Level FlightAware Approximate
02:58PM 11.5697 -67.3595 147° Southeast  Level FlightAware Approximate
02:59PM 11.4640 -67.2905 147° Southeast  Level FlightAware Approximate
03:00PM 11.3583 -67.2214 147° Southeast  Level FlightAware Approximate
03:01PM 11.2521 -67.1534 148° Southeast  Level FlightAware Approximate
03:02PM 11.1452 -67.0863 148° Southeast  Level FlightAware Approximate
03:03PM 11.0388 -67.0186 148° Southeast  Level FlightAware Approximate
03:04PM 10.9330 -66.9498 147° Southeast  Level FlightAware Approximate
03:05PM 10.8175 -66.9198 191° South  Level FlightAware Approximate
03:06PM 10.6944 -66.9445 191° South  Level FlightAware Approximate
03:07PM 10.6000 -66.9667 194° South  Level FlightAware Approximate
03:08PM 10.6031 -66.9906 194° South  Level Estimated
03:09PM 10.6031 -66.9906 194° South  Level Estimated
03:10PM 10.6031 -66.9906 194° South  Level Estimated
03:11PM 10.6031 -66.9906 194° South  Level Estimated
03:12PM 10.6031 -66.9906 194° South  Level Estimated